Ana Sayfa
METAR-TAF:

METAR-TAF

Havaalanları :

Westminster, Maryland, Amerika Birleşik Devletleri

Enlem: 39-36-30N, Boylam: 077-00-28W, yükseklik: 240 m

Güncel hava durumu gözlemi

Rapor saat 05:15 UTC de 31 dakika önce yapıldı.
Rüzgar kuzeydan 4 kt
Sıcaklık -9°C
Nem 73%
Basınç 1030 hPa
Görüş mesafesi: 16.1 km
Açık gökyüzü

METAR: KDMW 220515Z AUTO 36004KT 10SM CLR M09/M13 A3043 RMK AO2

Saat: 00:46 (05:46 UTC)


TAF: eksik

4.000'den fazla havaalanı için hava durumu gözlemleri ve tahminleri (METAR ve TAF raporları).

Kullanılabilir istasyonlar harita üzerinde sarı ve kırmızı noktalarla gösterilir.

İstasyonun adını görmek için fareyi noktanın üzerinde gezdirin.

Sonrasında hava gözlem ve tahminlerini görmek için tıklayın.

Haritayı değiştirmek için: yaklaştırmak için siyah artı işaretli yeşil düğmeye ve uzaklaştırmak için de eksi işaretli düğmeye hızla tıklayın; bitişik haritalar için yeşil okları kullanın.


METAR-TAF: